Stations météo

réclame
Mon MeteoGroup
Gielas, Suède (2110): Température de l'air & dewpoint: 10.08.2018 03:00:00 - 16.08.2018 03:00:00 (CEST)Gielas, Suède (2110): Vitesse du vent & gusts: 10.08.2018 03:00:00 - 16.08.2018 03:00:00 (CEST)Gielas, Suède (2110): Direction du vent: 10.08.2018 03:00:00 - 16.08.2018 03:00:00 (CEST)Gielas, Suède (2110): visibility: 10.08.2018 03:00:00 - 16.08.2018 03:00:00 (CEST)Gielas, Suède (2110): Quantités de précipitations: 10.08.2018 03:00:00 - 16.08.2018 03:00:00 (CEST)
Date & Time tt [°C] td [°C] ff [km/h] ff [knt] fx [km/h] fx [knt] dd vv [km] rr [mm]
16.08.2018 03:00:00 6,5 6,5 4 2 7 4 NNE 6 0,0
16.08.2018 02:00:00 7,6 7,6 3 1 7 4 NE 4,7 0,0
16.08.2018 01:00:00 8,7 8,6 3 2 6 3 SSE 4,4 0,0
16.08.2018 00:00:00 10,2 10,2 3 2 11 6 W 6 0,0
15.08.2018 23:00:00 10,1 10,1 2 1 6 3 E 7 0,0
15.08.2018 22:00:00 10,4 10,4 3 2 7 4 W 4,6 0,7
15.08.2018 21:00:00 10,8 10,6 4 2 7 4 N 10 1,4
15.08.2018 20:00:00 11,3 11,0 2 1 10 5 N 7 1,1
15.08.2018 19:00:00 12,7 9,5 5 3 16 9 S 37 0,0
15.08.2018 18:00:00 13,1 8,8 9 5 21 11 S 50 0,0
15.08.2018 17:00:00 14,8 8,3 5 3 28 15 ESE 42 0,0
15.08.2018 16:00:00 13,9 7,2 11 6 29 15 SSW 44 0,0
15.08.2018 15:00:00 13,0 8,3 9 5 22 12 ENE 48 0,0
15.08.2018 14:00:00 14,9 7,4 5 3 18 10 SW 47 0,0
15.08.2018 13:00:00 14,7 7,5 5 3 18 10 ENE 42 0,0
15.08.2018 12:00:00 13,6 8,0 10 6 19 10 ENE 41 0,0
15.08.2018 11:00:00 11,7 7,4 9 5 14 8 E 46 0,0
15.08.2018 10:00:00 11,6 7,3 4 2 11 6 N 50 0,0
15.08.2018 09:00:00 9,8 6,3 6 3 12 7 NE 50 0,0
15.08.2018 08:00:00 8,5 6,1 4 2 6 3 NNE 50 0,0
15.08.2018 07:00:00 7,6 7,0 5 3 6 4 NNE 50 0,0
15.08.2018 06:00:00 6,2 6,2 3 1 4 2 ENE 44 0,0
15.08.2018 05:00:00 5,4 5,4 3 1 5 3 NNE 49 0,0
15.08.2018 04:00:00 4,6 4,6 2 1 6 3 NE 43 0,0
15.08.2018 03:00:00 3,3 3,3 2 1 3 2 W 50 0,0
15.08.2018 02:00:00 1,8 1,8 3 2 8 4 WNW 48 0,0
15.08.2018 01:00:00 1,2 1,2 3 1 4 2 WSW 50 0,0
15.08.2018 00:00:00 1,6 1,3 2 1 7 4 NNE 50 0,0
14.08.2018 23:00:00 3,4 3,0 2 1 6 4 E 50 0,0
14.08.2018 22:00:00 5,1 4,4 4 2 6 3 NE 50 0,0
14.08.2018 21:00:00 7,8 5,8 2 1 12 7 NE 50 0,0
14.08.2018 20:00:00 9,7 4,5 6 3 15 8 E 50 0,0
14.08.2018 19:00:00 10,0 4,6 8 5 21 11 E 50 0,0
14.08.2018 18:00:00 10,7 3,9 4 2 9 5 ENE 50 0,0
14.08.2018 17:00:00 10,7 3,9 3 2 8 5 ENE 50 0,0
14.08.2018 16:00:00 10,3 2,6 3 1 7 4 SW 50 0,0
14.08.2018 15:00:00 10,6 3,6 2 1 9 5 W 50 0,0
14.08.2018 14:00:00 9,8 3,3 4 2 13 7 SW 44 0,0
14.08.2018 13:00:00 9,3 2,8 3 2 9 5 S 50 0,0
14.08.2018 12:00:00 8,9 2,7 5 3 12 6 E 50 0,0
14.08.2018 11:00:00 9,0 2,3 3 2 9 5 SSW 50 0,0
14.08.2018 10:00:00 8,6 3,2 3 2 10 5 WNW 50 0,0
14.08.2018 09:00:00 8,0 3,5 3 1 9 5 S 50 0,0
14.08.2018 08:00:00 7,0 5,1 4 2 16 8 NW 50 0,0
14.08.2018 07:00:00 6,0 5,6 5 3 17 9 W 21 0,2
14.08.2018 06:00:00 5,5 5,5 3 1 8 5 S 46 0,0
14.08.2018 05:00:00 5,4 5,3 3 2 19 10 W 4,3 0,1
14.08.2018 04:00:00 5,5 4,9 7 4 16 8 WNW 11 0,0
14.08.2018 03:00:00 5,6 5,3 6 3 10 5 WSW 50 0,0
14.08.2018 02:00:00 5,7 5,4 4 2 7 4 WSW 7 0,0
14.08.2018 01:00:00 5,9 4,9 3 1 10 6 W 40 0,0
14.08.2018 00:00:00 6,2 4,5 5 3 13 7 W 50 0,0
13.08.2018 23:00:00 6,5 5,3 7 4 16 9 W 13 0,0
13.08.2018 22:00:00 6,5 5,1 6 3 16 9 WNW 50 0,0
13.08.2018 21:00:00 6,7 4,5 5 3 23 12 W 50 0,0
13.08.2018 20:00:00 7,7 5,3 10 6 29 16 WNW 30 0,0
13.08.2018 19:00:00 9,3 5,3 13 7 29 16 WNW 50 0,0
13.08.2018 18:00:00 8,5 5,4 10 5 26 14 NW 25 0,0
13.08.2018 17:00:00 9,9 5,5 10 5 27 15 WNW 50 0,0
13.08.2018 16:00:00 9,9 5,7 11 6 26 14 NW 50 0,0
13.08.2018 15:00:00 9,7 5,3 10 6 34 19 WNW 50 0,0
13.08.2018 14:00:00 10,2 4,1 11 6 26 14 WNW 49 0,0
13.08.2018 13:00:00 9,2 5,0 10 6 31 17 WNW 50 0,0
13.08.2018 12:00:00 9,6 4,8 7 4 32 17 WNW 50 0,0
13.08.2018 11:00:00 8,2 4,2 9 5 24 13 W 50 0,0
13.08.2018 10:00:00 8,2 4,8 8 5 22 12 NW 50 0,0
13.08.2018 09:00:00 7,0 4,3 6 4 22 12 WSW 50 0,0
13.08.2018 08:00:00 6,9 4,0 10 6 26 14 WNW 45 0,0
13.08.2018 07:00:00 6,6 3,7 8 4 29 16 W 47 0,0
13.08.2018 06:00:00 6,4 4,9 13 7 32 17 WNW 50 0,0
13.08.2018 05:00:00 6,3 5,6 9 5 24 13 WNW 49 0,0
13.08.2018 04:00:00 6,4 5,8 8 5 21 11 WSW 50 0,0
13.08.2018 03:00:00 6,5 5,9 10 5 22 12 W 50 0,0
13.08.2018 02:00:00 6,7 6,0 9 5 26 14 W 50 0,0
13.08.2018 01:00:00 6,9 6,2 9 5 24 13 W 50 0,0
13.08.2018 00:00:00 7,2 6,5 10 5 23 12 W 28 0,2
12.08.2018 23:00:00 6,9 6,3 6 3 42 23 W 35 0,0
12.08.2018 22:00:00 7,7 5,2 13 7 31 17 WNW 43 0,0
12.08.2018 21:00:00 7,7 5,7 9 5 24 13 W 50 0,0
12.08.2018 20:00:00 8,8 6,6 9 5 36 19 WNW 50 0,0
12.08.2018 19:00:00 9,7 7,1 10 5 31 17 WNW 50 0,0
12.08.2018 18:00:00 9,9 6,8 14 8 39 21 W 50 0,0
12.08.2018 17:00:00 9,7 7,0 10 6 31 17 W 50 0,0
12.08.2018 16:00:00 9,7 7,5 9 5 25 13 W 38 0,2
12.08.2018 15:00:00 9,3 7,2 11 6 27 14 W 17 0,1
12.08.2018 14:00:00 9,2 6,8 9 5 23 13 W 25 0,1
12.08.2018 13:00:00 8,9 7,2 9 5 31 17 WNW 20 0,1
12.08.2018 12:00:00 9,2 7,0 10 5 33 18 WNW 22 0,0
12.08.2018 11:00:00 10,1 5,7 16 8 37 20 WNW 43 0,0
12.08.2018 10:00:00 9,5 5,9 9 5 26 14 W 43 0,0
12.08.2018 09:00:00 8,6 5,5 12 6 27 14 W 50 0,0
12.08.2018 08:00:00 8,3 5,2 10 6 25 13 W 50 0,0
12.08.2018 07:00:00 7,8 5,6 7 4 14 8 W 50 0,0
12.08.2018 06:00:00 7,2 5,2 8 4 18 10 W 50 0,0
12.08.2018 05:00:00 6,6 5,5 7 4 26 14 W 35 0,0
12.08.2018 04:00:00 5,5 4,6 7 4 17 9 WSW 36 0,0
12.08.2018 03:00:00 4,4 4,1 7 4 14 8 SW 24 0,0
12.08.2018 02:00:00 3,6 3,6 6 3 12 7 WSW 14 0,0
12.08.2018 01:00:00 3,7 3,4 7 4 13 7 SW 17 0,0
12.08.2018 00:00:00 6,1 4,6 4 2 22 12 W 30 0,0
11.08.2018 23:00:00 8,0 5,3 10 5 17 9 WSW 37 0,0
11.08.2018 22:00:00 8,0 5,8 8 5 30 16 WSW 38 0,0
11.08.2018 21:00:00 8,4 5,3 10 6 24 13 WSW 42 0,0
11.08.2018 20:00:00 8,4 6,0 11 6 26 14 WSW 48 0,0
11.08.2018 19:00:00 8,6 6,0 10 5 34 18 WSW 23 0,0
11.08.2018 18:00:00 9,1 5,5 12 7 36 19 WSW 50 0,0
11.08.2018 17:00:00 9,3 5,1 14 7 44 24 W 50 0,0
11.08.2018 16:00:00 9,1 5,3 19 10 55 30 W 50 0,0
11.08.2018 15:00:00 9,9 5,7 23 12 57 31 W 44 0,0
11.08.2018 14:00:00 10,6 6,2 27 14 62 33 W 43 0,0
11.08.2018 13:00:00 11,5 6,8 23 12 74 40 WSW 44 0,0
11.08.2018 12:00:00 11,6 7,3 27 15 61 33 WSW 46 0,0
11.08.2018 11:00:00 11,1 8,8 22 12 58 31 WSW 35 0,4
11.08.2018 10:00:00 11,5 10,7 9 5 18 10 W 13 0,4
11.08.2018 09:00:00 11,9 10,3 8 4 21 11 SW 29 0,1
11.08.2018 08:00:00 10,5 9,1 4 2 17 9 S 50 0,0
11.08.2018 07:00:00 10,1 7,9 11 6 31 17 SSW 50 0,0
11.08.2018 06:00:00 10,0 8,9 7 4 29 15 S 23 0,1
11.08.2018 05:00:00 11,1 8,7 9 5 30 16 S 50 0,0
11.08.2018 04:00:00 11,7 9,3 14 7 31 17 S 50 0,0
11.08.2018 03:00:00 12,2 9,9 13 7 31 17 S 44 0,0
11.08.2018 02:00:00 12,4 11,0 9 5 25 14 S 45 0,0
11.08.2018 01:00:00 12,2 10,9 10 5 22 12 S 45 0,0
11.08.2018 00:00:00 13,7 12,8 11 6 27 15 S 21 2,0
10.08.2018 23:00:00 12,8 12,8 12 6 24 13 NE 14 0,1
10.08.2018 22:00:00 12,2 11,9 8 5 16 9 NNE 50 0,0
10.08.2018 21:00:00 12,6 12,0 10 5 22 12 ENE 50 0,1
10.08.2018 20:00:00 11,4 11,1 7 4 25 14 N 16 0,2
10.08.2018 19:00:00 11,3 10,7 10 5 22 12 NNE 50 0,0
10.08.2018 18:00:00 11,3 10,8 7 4 25 13 NE 30 0,2
10.08.2018 17:00:00 10,7 10,2 12 6 27 15 N 9 0,7
10.08.2018 16:00:00 10,7 10,1 12 6 27 15 NE 9 0,8
10.08.2018 15:00:00 11,0 10,4 10 6 22 12 ENE 12 0,8
10.08.2018 14:00:00 11,2 10,6 11 6 24 13 ENE 13 1,7
10.08.2018 13:00:00 10,1 9,8 8 5 25 13 NNE 9 2,2
10.08.2018 12:00:00 10,2 9,6 11 6 22 12 NE 15 1,5
10.08.2018 11:00:00 10,0 9,5 10 5 19 11 NE 7 2,8
10.08.2018 10:00:00 9,9 9,7 6 3 13 7 NE 5 3,2
10.08.2018 09:00:00 9,9 9,9 3 2 9 5 SW 14 0,5
10.08.2018 08:00:00 9,4 9,4 2 1 5 3 NE 8 0,3
10.08.2018 07:00:00 8,7 8,7 1 1 3 2 NE 0,9 0,0
10.08.2018 06:00:00 7,5 7,5 1 1 5 3 NNE 0,4 0,0
10.08.2018 05:00:00 5,5 5,5 2 1 9 5 S 0,6 0,0
10.08.2018 04:00:00 4,5 4,5 5 3 7 4 W 0,5 0,0
10.08.2018 03:00:00 4,7 4,7 1 1 5 3 WNW 10 0,0

tt = Température de l'air
td = dewpoint
ff = Vitesse du vent
fx = gusts
dd = Direction du vent
vv = visibility
rr = Quantités de précipitations

stations d'obs. à proximité